createdAt,value
2022-10-11T00:00:57.491Z,100592.50
2022-10-11T00:03:25.317Z,100601.69
2022-10-11T00:05:53.774Z,100599.84
2022-10-11T00:08:21.470Z,100605.19
2022-10-11T00:10:57.391Z,100609.28
2022-10-11T00:13:26.397Z,100605.06
2022-10-11T00:15:55.741Z,100607.78
2022-10-11T00:18:23.577Z,100613.19
2022-10-11T00:20:51.076Z,100614.13
2022-10-11T00:23:18.561Z,100623.19
2022-10-11T00:25:46.028Z,100615.84
2022-10-11T00:28:13.528Z,100624.19
2022-10-11T00:30:44.602Z,100620.47
2022-10-11T00:33:12.071Z,100628.41
2022-10-11T00:35:41.274Z,100626.72
2022-10-11T00:38:08.756Z,100628.28
2022-10-11T00:40:36.326Z,100621.31
2022-10-11T00:43:03.845Z,100633.13
2022-10-11T00:46:03.331Z,100623.88
2022-10-11T00:48:39.087Z,100629.41
2022-10-11T00:51:13.382Z,100637.59
2022-10-11T00:53:41.557Z,100636.41
2022-10-11T00:56:13.965Z,100634.13
2022-10-11T00:58:42.648Z,100635.66
2022-10-11T01:01:12.073Z,100643.81
2022-10-11T01:03:41.678Z,100632.22
2022-10-11T01:06:10.082Z,100630.59
2022-10-11T01:08:38.832Z,100640.97
2022-10-11T01:11:07.256Z,100645.34
2022-10-11T01:13:47.056Z,100646.28
2022-10-11T01:16:24.479Z,100636.50
2022-10-11T01:19:03.974Z,100639.03
2022-10-11T01:21:39.384Z,100640.69
2022-10-11T01:24:24.633Z,100655.06
2022-10-11T01:27:33.489Z,100641.50
2022-10-11T01:30:14.649Z,100648.50
2022-10-11T01:32:50.990Z,100648.81
2022-10-11T01:35:25.751Z,100652.16
2022-10-11T01:38:00.667Z,100652.38
2022-10-11T01:40:32.733Z,100654.00
2022-10-11T01:43:01.186Z,100655.19
2022-10-11T01:45:31.427Z,100651.03
2022-10-11T01:48:04.325Z,100649.72
2022-10-11T01:50:37.879Z,100654.84
2022-10-11T01:53:16.591Z,100658.47
2022-10-11T01:55:51.586Z,100650.03
2022-10-11T01:58:34.646Z,100651.59
2022-10-11T02:01:16.051Z,100653.22
2022-10-11T02:03:50.074Z,100642.84
2022-10-11T02:06:24.161Z,100653.56
2022-10-11T02:09:07.778Z,100649.53
2022-10-11T02:11:37.269Z,100647.00
2022-10-11T02:14:10.354Z,100649.34
2022-10-11T02:16:46.241Z,100656.06
2022-10-11T02:19:19.566Z,100652.94
2022-10-11T02:21:52.331Z,100655.16
2022-10-11T02:24:24.134Z,100654.03
2022-10-11T02:26:55.012Z,100655.56
2022-10-11T02:29:25.907Z,100654.19
2022-10-11T02:31:57.722Z,100662.41
2022-10-11T02:34:28.714Z,100655.84
2022-10-11T02:37:03.379Z,100658.78
2022-10-11T02:39:35.648Z,100663.47
2022-10-11T02:42:07.629Z,100657.75
2022-10-11T02:44:39.794Z,100667.28
2022-10-11T02:47:09.404Z,100661.28
2022-10-11T02:49:37.103Z,100665.63
2022-10-11T02:52:07.185Z,100667.00
2022-10-11T02:54:35.028Z,100666.78
2022-10-11T02:57:02.713Z,100673.97
2022-10-11T02:59:30.212Z,100664.88
2022-10-11T03:01:57.820Z,100668.94
2022-10-11T03:04:26.678Z,100672.63
2022-10-11T03:06:54.155Z,100675.50
2022-10-11T03:09:21.658Z,100681.41
2022-10-11T03:11:49.330Z,100677.94
2022-10-11T03:14:16.805Z,100684.06
2022-10-11T03:16:44.298Z,100683.31
2022-10-11T03:19:14.642Z,100678.25
2022-10-11T03:21:47.210Z,100686.47
2022-10-11T03:24:14.735Z,100688.81
2022-10-11T03:26:42.252Z,100688.78
2022-10-11T03:29:09.884Z,100690.13
2022-10-11T03:31:37.426Z,100703.28
2022-10-11T03:34:04.938Z,100696.72
2022-10-11T03:36:32.411Z,100702.19
2022-10-11T03:39:03.053Z,100705.06
2022-10-11T03:41:30.696Z,100703.97
2022-10-11T03:43:58.365Z,100706.41
2022-10-11T03:46:25.993Z,100714.00
2022-10-11T03:48:53.479Z,100720.03
2022-10-11T03:51:21.017Z,100720.84
2022-10-11T03:53:48.498Z,100718.88
2022-10-11T03:56:17.340Z,100717.72
2022-10-11T03:58:44.807Z,100722.44
2022-10-11T04:01:12.456Z,100725.09
2022-10-11T04:03:39.988Z,100726.72
2022-10-11T04:06:08.496Z,100725.25
2022-10-11T04:08:36.253Z,100735.16
2022-10-11T04:11:04.029Z,100730.66
2022-10-11T04:13:32.879Z,100735.16
2022-10-11T04:16:00.518Z,100733.38
2022-10-11T04:18:27.976Z,100736.06
2022-10-11T04:20:55.461Z,100731.09
2022-10-11T04:23:23.153Z,100737.59
2022-10-11T04:25:50.650Z,100732.06
2022-10-11T04:28:18.213Z,100735.44
2022-10-11T04:30:47.144Z,100741.84
2022-10-11T04:33:15.338Z,100739.06
2022-10-11T04:35:42.835Z,100746.44
2022-10-11T04:38:10.339Z,100743.19
2022-10-11T04:40:37.911Z,100752.13
2022-10-11T04:43:05.363Z,100743.09
2022-10-11T04:45:33.067Z,100759.41
2022-10-11T04:48:02.022Z,100753.25
2022-10-11T04:50:29.515Z,100753.84
2022-10-11T04:52:56.984Z,100757.78
2022-10-11T04:55:24.440Z,100760.91
2022-10-11T04:57:51.969Z,100754.97
2022-10-11T05:00:19.662Z,100755.97
2022-10-11T05:02:47.213Z,100762.31
2022-10-11T05:05:17.501Z,100767.03
2022-10-11T05:07:45.118Z,100765.44
2022-10-11T05:10:12.661Z,100762.91
2022-10-11T05:12:40.185Z,100767.19
2022-10-11T05:15:09.177Z,100765.81
2022-10-11T05:17:36.613Z,100773.03
2022-10-11T05:20:04.274Z,100770.13
2022-10-11T05:22:33.067Z,100774.63
2022-10-11T05:25:00.514Z,100778.09
2022-10-11T05:27:28.209Z,100781.16
2022-10-11T05:29:55.745Z,100781.41
2022-10-11T05:32:26.716Z,100779.97
2022-10-11T05:34:55.502Z,100771.03
2022-10-11T05:37:23.057Z,100786.81
2022-10-11T05:39:52.093Z,100789.59
2022-10-11T05:42:19.537Z,100791.06
2022-10-11T05:44:47.617Z,100796.34
2022-10-11T05:47:15.315Z,100796.13
2022-10-11T05:49:42.865Z,100800.81
2022-10-11T05:52:10.844Z,100795.81
2022-10-11T05:54:38.387Z,100798.19
2022-10-11T05:57:07.216Z,100798.09
2022-10-11T05:59:36.259Z,100795.22
2022-10-11T06:02:03.955Z,100800.00
2022-10-11T06:04:31.706Z,100805.69
2022-10-11T06:06:59.250Z,100802.19
2022-10-11T06:09:26.868Z,100807.13
2022-10-11T06:11:54.354Z,100808.84
2022-10-11T06:14:23.333Z,100810.34
2022-10-11T06:16:50.774Z,100811.97
2022-10-11T06:19:18.253Z,100814.63
2022-10-11T06:21:46.627Z,100821.00
2022-10-11T06:24:14.185Z,100820.94
2022-10-11T06:26:41.733Z,100819.78
2022-10-11T06:29:09.794Z,100827.66
2022-10-11T06:31:38.598Z,100822.25
2022-10-11T06:34:06.096Z,100831.03
2022-10-11T06:36:33.626Z,100827.19
2022-10-11T06:39:01.661Z,100827.84
2022-10-11T06:41:31.197Z,100831.28
2022-10-11T06:43:58.970Z,100832.50
2022-10-11T06:46:28.372Z,100835.47
2022-10-11T06:48:57.280Z,100841.56
2022-10-11T06:51:25.527Z,100842.97
2022-10-11T06:53:56.612Z,100847.75
2022-10-11T06:56:24.973Z,100845.16
2022-10-11T06:58:54.170Z,100851.75
2022-10-11T07:01:23.542Z,100855.28
2022-10-11T07:03:52.594Z,100855.34
2022-10-11T07:06:23.153Z,100859.31
2022-10-11T07:08:50.880Z,100861.72
2022-10-11T07:11:20.584Z,100868.56
2022-10-11T07:13:51.822Z,100868.56
2022-10-11T07:16:20.739Z,100877.91
2022-10-11T07:18:49.006Z,100878.06
2022-10-11T07:21:17.098Z,100884.94
2022-10-11T07:23:45.942Z,100886.41
2022-10-11T07:26:13.771Z,100891.66
2022-10-11T07:28:41.834Z,100891.41
2022-10-11T07:31:11.518Z,100890.00
2022-10-11T07:33:39.002Z,100890.00
2022-10-11T07:36:08.468Z,100893.94
2022-10-11T07:38:36.768Z,100890.66
2022-10-11T07:41:07.723Z,100887.66
2022-10-11T07:43:35.235Z,100892.78
2022-10-11T07:46:04.732Z,100894.00
2022-10-11T07:48:33.473Z,100888.22
2022-10-11T07:51:06.879Z,100887.81
2022-10-11T07:53:39.200Z,100890.03
2022-10-11T07:56:09.173Z,100890.66
2022-10-11T07:58:36.857Z,100894.31
2022-10-11T08:01:04.656Z,100885.47
2022-10-11T08:03:32.243Z,100897.75
2022-10-11T08:06:03.882Z,100895.25
2022-10-11T08:08:32.028Z,100894.22
2022-10-11T08:11:00.494Z,100893.53
2022-10-11T08:13:29.366Z,100903.59
2022-10-11T08:15:57.629Z,100907.72
2022-10-11T08:18:25.629Z,100903.97
2022-10-11T08:20:53.451Z,100903.53
2022-10-11T08:23:21.224Z,100908.78
2022-10-11T08:25:49.163Z,100900.78
2022-10-11T08:28:17.818Z,100911.75
2022-10-11T08:30:50.909Z,100909.06
2022-10-11T08:33:18.926Z,100907.28
2022-10-11T08:35:46.418Z,100914.19
2022-10-11T08:38:14.088Z,100917.88
2022-10-11T08:40:47.032Z,100908.78
2022-10-11T08:43:23.279Z,100916.00
2022-10-11T08:45:56.934Z,100914.38
2022-10-11T08:48:33.477Z,100921.53
2022-10-11T08:51:01.835Z,100919.13
2022-10-11T08:53:41.960Z,100920.88
2022-10-11T08:56:13.172Z,100924.75
2022-10-11T08:58:46.557Z,100918.88
2022-10-11T09:01:19.585Z,100919.72
2022-10-11T09:03:48.989Z,100922.19
2022-10-11T09:06:25.036Z,100924.94
2022-10-11T09:09:08.499Z,100929.47
2022-10-11T09:11:47.856Z,100929.63
2022-10-11T09:14:36.500Z,100923.81
2022-10-11T09:17:11.985Z,100916.38
2022-10-11T09:19:59.383Z,100920.84
2022-10-11T09:22:39.260Z,100923.91
2022-10-11T09:25:19.607Z,100925.13
2022-10-11T09:28:02.923Z,100918.41
2022-10-11T09:30:33.009Z,100922.59
2022-10-11T09:33:11.765Z,100923.50
2022-10-11T09:35:43.540Z,100920.00
2022-10-11T09:38:19.405Z,100923.53
2022-10-11T09:40:59.816Z,100918.50
2022-10-11T09:43:27.704Z,100924.72
2022-10-11T09:45:55.216Z,100914.72
2022-10-11T09:48:28.311Z,100918.22
2022-10-11T09:51:03.546Z,100916.34
2022-10-11T09:53:56.533Z,100911.50
2022-10-11T09:56:25.820Z,100908.47
2022-10-11T09:59:08.978Z,100909.91
2022-10-11T10:01:36.751Z,100914.94
2022-10-11T10:04:09.777Z,100918.38
2022-10-11T10:06:38.447Z,100917.97
2022-10-11T10:09:27.072Z,100919.84
2022-10-11T10:11:55.662Z,100921.13
2022-10-11T10:14:26.434Z,100921.41
2022-10-11T10:17:03.723Z,100926.72
2022-10-11T10:19:44.702Z,100921.50
2022-10-11T10:22:19.855Z,100924.56
2022-10-11T10:24:48.911Z,100930.91
2022-10-11T10:27:20.900Z,100920.59
2022-10-11T10:30:13.150Z,100923.41
2022-10-11T10:32:49.750Z,100921.50
2022-10-11T10:35:28.247Z,100925.97
2022-10-11T10:38:06.258Z,100922.22
2022-10-11T10:40:40.265Z,100921.66
2022-10-11T10:43:15.511Z,100918.03
2022-10-11T10:46:04.874Z,100916.41
2022-10-11T10:49:12.030Z,100914.34
2022-10-11T10:51:39.713Z,100914.00
2022-10-11T10:54:18.585Z,100923.72
2022-10-11T10:56:53.020Z,100911.56
2022-10-11T10:59:36.712Z,100904.81
2022-10-11T11:02:38.932Z,100913.00
2022-10-11T11:05:13.728Z,100912.03
2022-10-11T11:07:46.970Z,100903.78
2022-10-11T11:10:20.171Z,100903.84
2022-10-11T11:12:55.128Z,100903.66
2022-10-11T11:15:32.584Z,100905.22
2022-10-11T11:18:17.153Z,100907.75
2022-10-11T11:20:56.001Z,100900.59
2022-10-11T11:23:33.774Z,100904.56
2022-10-11T11:26:11.461Z,100905.88
2022-10-11T11:28:50.542Z,100891.28
2022-10-11T11:31:32.692Z,100899.44
2022-10-11T11:34:06.109Z,100899.78
2022-10-11T11:36:40.367Z,100894.59
2022-10-11T11:39:17.791Z,100891.66
2022-10-11T11:41:51.508Z,100890.28
2022-10-11T11:44:27.256Z,100890.44
2022-10-11T11:47:00.218Z,100890.94
2022-10-11T11:49:32.831Z,100888.13
2022-10-11T11:52:01.418Z,100881.94
2022-10-11T11:54:43.349Z,100886.63
2022-10-11T11:57:24.325Z,100872.91
2022-10-11T11:59:57.875Z,100875.72
2022-10-11T12:02:38.786Z,100871.72
2022-10-11T12:05:07.783Z,100869.19
2022-10-11T12:07:49.954Z,100868.00
2022-10-11T12:10:27.140Z,100876.56
2022-10-11T12:13:07.731Z,100867.47
2022-10-11T12:15:35.588Z,100874.00
2022-10-11T12:18:21.681Z,100874.94
2022-10-11T12:21:03.443Z,100867.22
2022-10-11T12:23:46.532Z,100865.97
2022-10-11T12:26:37.969Z,100860.66
2022-10-11T12:29:28.697Z,100852.88
2022-10-11T12:32:30.760Z,100854.72
2022-10-11T12:35:31.938Z,100853.75
2022-10-11T12:38:07.145Z,100849.53
2022-10-11T12:40:41.761Z,100842.41
2022-10-11T12:43:27.306Z,100850.88
2022-10-11T12:45:54.938Z,100851.56
2022-10-11T12:48:40.641Z,100849.50
2022-10-11T12:51:26.589Z,100843.09
2022-10-11T12:54:31.009Z,100850.59
2022-10-11T12:57:23.978Z,100839.66
2022-10-11T12:59:52.974Z,100843.28
2022-10-11T13:02:28.896Z,100841.06
2022-10-11T13:05:07.697Z,100846.28
2022-10-11T13:07:36.591Z,100840.63
2022-10-11T13:10:06.593Z,100840.47
2022-10-11T13:12:41.232Z,100843.19
2022-10-11T13:15:15.762Z,100840.97
2022-10-11T13:17:44.070Z,100835.09
2022-10-11T13:20:19.162Z,100831.47
2022-10-11T13:22:48.174Z,100828.88
2022-10-11T13:25:18.568Z,100828.84
2022-10-11T13:27:46.584Z,100819.91
2022-10-11T13:30:19.538Z,100821.75
2022-10-11T13:32:47.598Z,100816.81
2022-10-11T13:35:22.336Z,100813.78
2022-10-11T13:37:52.377Z,100817.94
2022-10-11T13:40:22.064Z,100814.94
2022-10-11T13:42:50.971Z,100811.84
2022-10-11T13:45:21.964Z,100811.78
2022-10-11T13:47:50.960Z,100803.03
2022-10-11T13:50:30.258Z,100797.41
2022-10-11T13:53:00.542Z,100801.38
2022-10-11T13:55:34.669Z,100803.69
2022-10-11T13:58:04.325Z,100802.56
2022-10-11T14:00:38.961Z,100802.06
2022-10-11T14:03:18.593Z,100803.97
2022-10-11T14:05:54.814Z,100804.75
2022-10-11T14:08:26.037Z,100802.25
2022-10-11T14:10:57.868Z,100807.28
2022-10-11T14:13:31.230Z,100803.31
2022-10-11T14:16:06.554Z,100796.38
2022-10-11T14:18:41.182Z,100803.13
2022-10-11T14:21:31.292Z,100800.63
2022-10-11T14:24:00.559Z,100795.03
2022-10-11T14:26:33.917Z,100790.50
2022-10-11T14:29:03.161Z,100792.16
2022-10-11T14:31:32.289Z,100795.44
2022-10-11T14:33:59.969Z,100799.66
2022-10-11T14:36:28.048Z,100797.44
2022-10-11T14:38:55.683Z,100791.00
2022-10-11T14:41:23.170Z,100794.88
2022-10-11T14:43:50.697Z,100789.09
2022-10-11T14:46:23.947Z,100796.78
2022-10-11T14:48:56.330Z,100790.91
2022-10-11T14:51:28.468Z,100790.03
2022-10-11T14:53:55.930Z,100791.97
2022-10-11T14:56:23.417Z,100790.22
2022-10-11T14:58:51.331Z,100789.47
2022-10-11T15:01:18.914Z,100792.13
2022-10-11T15:03:46.488Z,100793.75
2022-10-11T15:06:19.154Z,100796.44
2022-10-11T15:08:47.117Z,100788.53
2022-10-11T15:11:17.040Z,100788.84
2022-10-11T15:13:44.708Z,100778.84
2022-10-11T15:16:14.825Z,100783.66
2022-10-11T15:18:42.625Z,100784.81
2022-10-11T15:21:14.010Z,100783.44
2022-10-11T15:23:42.853Z,100777.28
2022-10-11T15:26:14.154Z,100782.47
2022-10-11T15:28:42.126Z,100778.25
2022-10-11T15:31:09.839Z,100778.56
2022-10-11T15:33:37.547Z,100778.69
2022-10-11T15:36:06.515Z,100779.53
2022-10-11T15:38:34.485Z,100777.50
2022-10-11T15:41:03.488Z,100784.00
2022-10-11T15:43:31.157Z,100777.19
2022-10-11T15:45:59.256Z,100781.00
2022-10-11T15:48:27.737Z,100777.47
2022-10-11T15:50:55.535Z,100773.28
2022-10-11T15:53:25.696Z,100775.03
2022-10-11T15:55:54.657Z,100781.22
2022-10-11T15:58:25.791Z,100777.94
2022-10-11T16:00:55.177Z,100781.81
2022-10-11T16:03:24.933Z,100787.91
2022-10-11T16:05:53.421Z,100781.66
2022-10-11T16:08:21.292Z,100775.66
2022-10-11T16:10:48.745Z,100773.47
2022-10-11T16:13:16.877Z,100773.63
2022-10-11T16:15:46.717Z,100778.69
2022-10-11T16:18:16.129Z,100782.22
2022-10-11T16:20:47.243Z,100775.94
2022-10-11T16:23:15.733Z,100775.47
2022-10-11T16:25:43.243Z,100774.06
2022-10-11T16:28:11.573Z,100780.28
2022-10-11T16:30:40.677Z,100782.72
2022-10-11T16:33:09.538Z,100784.91
2022-10-11T16:35:37.038Z,100781.75
2022-10-11T16:38:04.703Z,100780.31
2022-10-11T16:40:32.202Z,100780.59
2022-10-11T16:43:07.420Z,100787.31
2022-10-11T16:45:36.185Z,100792.63
2022-10-11T16:48:04.091Z,100789.00
2022-10-11T16:50:38.394Z,100785.31
2022-10-11T16:53:07.234Z,100784.59
2022-10-11T16:55:34.728Z,100784.31
2022-10-11T16:58:02.233Z,100783.78
2022-10-11T17:00:29.743Z,100777.50
2022-10-11T17:02:57.257Z,100777.34
2022-10-11T17:05:24.954Z,100783.63
2022-10-11T17:07:53.769Z,100788.13
2022-10-11T17:10:39.018Z,100784.44
2022-10-11T17:13:06.682Z,100790.34
2022-10-11T17:15:35.894Z,100795.06
2022-10-11T17:18:03.385Z,100783.25
2022-10-11T17:20:30.874Z,100775.31
2022-10-11T17:23:00.063Z,100791.41
2022-10-11T17:25:28.135Z,100780.28
2022-10-11T17:27:56.279Z,100784.19
2022-10-11T17:30:23.907Z,100792.50
2022-10-11T17:32:51.905Z,100783.28
2022-10-11T17:35:19.499Z,100781.81
2022-10-11T17:37:46.975Z,100786.75
2022-10-11T17:40:15.855Z,100787.44
2022-10-11T17:42:43.346Z,100788.03
2022-10-11T17:45:11.243Z,100783.81
2022-10-11T17:47:39.807Z,100789.44
2022-10-11T17:50:08.148Z,100787.56
2022-10-11T17:52:35.652Z,100792.53
2022-10-11T17:55:03.736Z,100789.59
2022-10-11T17:57:32.560Z,100785.09
2022-10-11T18:00:01.869Z,100780.78
2022-10-11T18:02:29.388Z,100788.88
2022-10-11T18:04:57.062Z,100787.69
2022-10-11T18:07:24.582Z,100796.38
2022-10-11T18:09:52.202Z,100794.09
2022-10-11T18:12:19.684Z,100795.25
2022-10-11T18:14:48.571Z,100797.75
2022-10-11T18:17:16.050Z,100796.94
2022-10-11T18:19:43.503Z,100784.25
2022-10-11T18:22:11.017Z,100784.88
2022-10-11T18:24:39.258Z,100790.22
2022-10-11T18:27:06.713Z,100795.50
2022-10-11T18:29:34.226Z,100792.91
2022-10-11T18:32:03.045Z,100798.53
2022-10-11T18:34:30.511Z,100787.38
2022-10-11T18:36:58.003Z,100798.53
2022-10-11T18:39:25.621Z,100791.28
2022-10-11T18:41:53.497Z,100790.50
2022-10-11T18:44:21.033Z,100794.59
2022-10-11T18:46:50.160Z,100796.31
2022-10-11T18:49:19.035Z,100790.66
2022-10-11T18:51:47.824Z,100792.56
2022-10-11T18:54:20.036Z,100796.44
2022-10-11T18:56:48.739Z,100785.75
2022-10-11T18:59:16.263Z,100791.06
2022-10-11T19:01:45.472Z,100788.53
2022-10-11T19:04:16.635Z,100789.03
2022-10-11T19:06:48.296Z,100782.56
2022-10-11T19:09:21.267Z,100780.63
2022-10-11T19:11:49.593Z,100781.38
2022-10-11T19:14:20.988Z,100773.78
2022-10-11T19:16:51.271Z,100779.28
2022-10-11T19:19:20.720Z,100783.13
2022-10-11T19:21:49.615Z,100777.91
2022-10-11T19:24:17.825Z,100775.81
2022-10-11T19:26:45.479Z,100779.28
2022-10-11T19:29:15.258Z,100779.47
2022-10-11T19:31:44.464Z,100774.25
2022-10-11T19:34:12.833Z,100768.38
2022-10-11T19:36:42.528Z,100774.38
2022-10-11T19:39:12.758Z,100767.03
2022-10-11T19:41:40.316Z,100774.25
2022-10-11T19:44:08.057Z,100774.06
2022-10-11T19:46:50.903Z,100766.88
2022-10-11T19:49:21.427Z,100770.13
2022-10-11T19:51:48.904Z,100768.84
2022-10-11T19:54:18.081Z,100764.19
2022-10-11T19:56:45.705Z,100759.03
2022-10-11T19:59:14.386Z,100764.44
2022-10-11T20:01:45.510Z,100766.03
2022-10-11T20:04:33.558Z,100765.13
2022-10-11T20:07:03.155Z,100767.72
2022-10-11T20:09:31.998Z,100769.53
2022-10-11T20:11:59.880Z,100774.69
2022-10-11T20:14:27.650Z,100777.81
2022-10-11T20:16:55.136Z,100773.31
2022-10-11T20:19:27.767Z,100771.00
2022-10-11T20:21:57.672Z,100777.84
2022-10-11T20:24:27.319Z,100774.84
2022-10-11T20:26:56.435Z,100776.13
2022-10-11T20:29:25.238Z,100780.22
2022-10-11T20:31:52.787Z,100771.78
2022-10-11T20:34:20.282Z,100774.19
2022-10-11T20:36:49.232Z,100767.69
2022-10-11T20:39:17.717Z,100774.59
2022-10-11T20:41:45.224Z,100772.34
2022-10-11T20:44:15.967Z,100770.78
2022-10-11T20:46:43.434Z,100774.00
2022-10-11T20:49:12.223Z,100771.59
2022-10-11T20:51:41.410Z,100770.84
2022-10-11T20:54:09.317Z,100765.78
2022-10-11T20:56:38.192Z,100766.00
2022-10-11T20:59:06.124Z,100762.78
2022-10-11T21:01:37.580Z,100770.81
2022-10-11T21:04:06.145Z,100771.50
2022-10-11T21:06:35.138Z,100768.88
2022-10-11T21:09:02.663Z,100768.13
2022-10-11T21:11:32.177Z,100764.53
2022-10-11T21:14:01.650Z,100760.97
2022-10-11T21:16:29.783Z,100758.81
2022-10-11T21:19:00.038Z,100761.22
2022-10-11T21:21:29.511Z,100757.97
2022-10-11T21:23:58.954Z,100755.13
2022-10-11T21:26:27.262Z,100751.97
2022-10-11T21:28:54.821Z,100757.47
2022-10-11T21:31:23.432Z,100761.66
2022-10-11T21:33:51.340Z,100757.31
2022-10-11T21:36:21.697Z,100752.25
2022-10-11T21:38:49.996Z,100760.31
2022-10-11T21:41:19.443Z,100749.09
2022-10-11T21:43:47.785Z,100750.72
2022-10-11T21:46:17.963Z,100754.22
2022-10-11T21:48:46.557Z,100750.16
2022-10-11T21:51:15.841Z,100751.19
2022-10-11T21:53:45.713Z,100753.66
2022-10-11T21:56:13.216Z,100755.06
2022-10-11T21:58:40.803Z,100748.94
2022-10-11T22:01:08.428Z,100744.22
2022-10-11T22:03:35.954Z,100745.72
2022-10-11T22:06:04.949Z,100750.53
2022-10-11T22:08:33.071Z,100747.47
2022-10-11T22:11:02.741Z,100749.19
2022-10-11T22:13:32.509Z,100749.97
2022-10-11T22:16:03.452Z,100743.16
2022-10-11T22:18:33.633Z,100743.88
2022-10-11T22:21:05.507Z,100747.72
2022-10-11T22:23:33.002Z,100741.66
2022-10-11T22:26:05.916Z,100751.66
2022-10-11T22:28:33.644Z,100748.97
2022-10-11T22:31:01.394Z,100755.00
2022-10-11T22:33:28.875Z,100750.53
2022-10-11T22:35:56.875Z,100755.34
2022-10-11T22:38:24.415Z,100749.84
2022-10-11T22:40:52.144Z,100757.97
2022-10-11T22:43:21.468Z,100750.84
2022-10-11T22:45:48.926Z,100757.09
2022-10-11T22:48:16.615Z,100750.66
2022-10-11T22:50:44.283Z,100747.78
2022-10-11T22:53:13.521Z,100743.97
2022-10-11T22:55:41.367Z,100741.31
2022-10-11T22:58:08.967Z,100741.03
2022-10-11T23:00:37.864Z,100733.22
2022-10-11T23:03:06.989Z,100743.81
2022-10-11T23:05:34.525Z,100736.41
2022-10-11T23:08:02.049Z,100737.06
2022-10-11T23:10:29.511Z,100737.91
2022-10-11T23:12:56.952Z,100736.28
2022-10-11T23:15:24.540Z,100735.63
2022-10-11T23:17:53.347Z,100734.84
2022-10-11T23:20:20.804Z,100742.97
2022-10-11T23:22:48.248Z,100743.81
2022-10-11T23:25:15.757Z,100742.97
2022-10-11T23:27:43.222Z,100745.53
2022-10-11T23:30:12.514Z,100737.84
2022-10-11T23:32:39.984Z,100743.16
2022-10-11T23:35:09.530Z,100730.06
2022-10-11T23:37:37.310Z,100733.78
2022-10-11T23:40:05.954Z,100738.47
2022-10-11T23:42:33.404Z,100732.44
2022-10-11T23:45:00.842Z,100740.03
2022-10-11T23:47:28.313Z,100743.78
2022-10-11T23:49:55.768Z,100735.28
2022-10-11T23:52:24.608Z,100739.63
2022-10-11T23:54:52.078Z,100732.03
2022-10-11T23:57:19.569Z,100731.41
2022-10-11T23:59:47.011Z,100738.44
